Time;durP1;ratioP1;P1;durP2;ratioP2;P2;SDS_P1;SDS_P2;PMS_P1;PMS_P2;Temp;Humidity;BMP_temperature;BMP_pressure;BME280_temperature;BME280_humidity;BME280_pressure;Samples;Min_cycle;Max_cycle;Signal;HPM_P1;HPM_P2
2022/05/14 00:00:50;;;;;;;15.43;14.82;;;;;;;-141.02;100.00;55844.97;5153796;27;20275;-71
2022/05/14 00:03:17;;;;;;;15.60;15.00;;;;;;;-141.02;100.00;55844.97;5153434;27;20290;-72
2022/05/14 00:05:45;;;;;;;15.63;15.02;;;;;;;-141.02;100.00;55844.97;5153729;27;20206;-71
2022/05/14 00:08:15;;;;;;;15.70;15.10;;;;;;;-141.02;100.00;55844.97;5153403;27;20275;-72
2022/05/14 00:13:25;;;;;;;15.32;14.73;;;;;;;-141.02;100.00;55844.97;5153303;27;20184;-71
2022/05/14 00:15:53;;;;;;;15.65;15.05;;;;;;;-141.02;100.00;55844.97;5153312;27;20227;-72
2022/05/14 00:18:21;;;;;;;15.48;14.88;;;;;;;-141.02;100.00;55844.97;5153331;27;20192;-72
2022/05/14 00:20:49;;;;;;;15.20;14.60;;;;;;;-141.02;100.00;55844.97;5153326;27;20245;-72
2022/05/14 00:23:16;;;;;;;15.30;14.70;;;;;;;-141.02;100.00;55844.97;5155822;27;20195;-71
2022/05/14 00:25:44;;;;;;;15.57;14.98;;;;;;;-141.02;100.00;55844.97;5157168;27;20195;-72
2022/05/14 00:28:13;;;;;;;15.20;14.60;;;;;;;-141.02;100.00;55844.97;5157218;27;20188;-72
2022/05/14 00:30:41;;;;;;;15.00;14.40;;;;;;;-141.02;100.00;55844.97;5157443;27;20223;-72
2022/05/14 00:33:08;;;;;;;15.38;14.77;;;;;;;-141.02;100.00;55844.97;5157115;27;20314;-72
2022/05/14 00:35:36;;;;;;;15.30;14.70;;;;;;;-141.02;100.00;55844.97;5156988;27;20318;-72
2022/05/14 00:38:05;;;;;;;15.88;15.27;;;;;;;-141.02;100.00;55844.97;5156939;27;20192;-71
2022/05/14 00:40:37;;;;;;;15.20;14.60;;;;;;;-141.02;100.00;55844.97;5157251;27;20223;-71
2022/05/14 00:43:04;;;;;;;15.48;14.88;;;;;;;-141.02;100.00;55844.97;5157249;27;20188;-72
2022/05/14 00:45:34;;;;;;;16.20;15.50;;;;;;;-141.02;100.00;55844.97;5156832;27;20286;-72
2022/05/14 00:48:02;;;;;;;15.75;15.15;;;;;;;-141.02;100.00;55844.97;5157326;27;20209;-71
2022/05/14 00:50:37;;;;;;;15.60;15.00;;;;;;;-141.02;100.00;55844.97;5157089;27;20268;-72
2022/05/14 00:53:51;;;;;;;15.80;15.20;;;;;;;-141.02;100.00;55844.97;5156746;27;20191;-71
2022/05/14 00:56:27;;;;;;;15.73;15.13;;;;;;;-141.02;100.00;55844.97;5156610;27;20227;-71
2022/05/14 00:59:00;;;;;;;15.30;14.70;;;;;;;-141.02;100.00;55844.97;5156948;27;20202;-72
2022/05/14 01:01:28;;;;;;;15.60;15.00;;;;;;;-141.02;100.00;55844.97;5156530;27;20534;-71
2022/05/14 01:03:55;;;;;;;15.20;14.60;;;;;;;-141.02;100.00;55844.97;5157046;27;20286;-71
2022/05/14 01:06:23;;;;;;;16.13;15.43;;;;;;;-141.02;100.00;55844.97;5156739;27;20225;-71
2022/05/14 01:08:50;;;;;;;15.73;15.13;;;;;;;-141.02;100.00;55844.97;5156368;27;20631;-71
2022/05/14 01:11:19;;;;;;;15.50;14.90;;;;;;;-141.02;100.00;55844.97;5156384;27;20724;-71
2022/05/14 01:13:47;;;;;;;15.60;15.00;;;;;;;-141.02;100.00;55844.97;5156506;27;20229;-71
2022/05/14 01:16:14;;;;;;;16.38;15.68;;;;;;;-141.02;100.00;55844.97;5156579;27;20231;-71
2022/05/14 01:18:41;;;;;;;16.05;15.35;;;;;;;-141.02;100.00;55844.97;5156162;27;20659;-71
2022/05/14 01:21:27;;;;;;;15.80;15.20;;;;;;;-141.02;100.00;55844.97;5156460;27;20227;-71
2022/05/14 01:26:48;;;;;;;15.60;15.00;;;;;;;-141.02;100.00;55844.97;5156391;27;20328;-71
2022/05/14 01:29:19;;;;;;;15.85;15.25;;;;;;;-141.02;100.00;55844.97;5156302;27;20282;-71
2022/05/14 01:31:47;;;;;;;15.45;14.85;;;;;;;-141.02;100.00;55844.97;5156238;27;20188;-71
2022/05/14 01:34:17;;;;;;;15.20;14.60;;;;;;;-141.02;100.00;55844.97;5155493;27;20322;-71
2022/05/14 01:36:44;;;;;;;15.57;14.98;;;;;;;-141.02;100.00;55844.97;5155905;27;20207;-72
2022/05/14 01:39:12;;;;;;;15.30;14.70;;;;;;;-141.02;100.00;55844.97;5155774;27;20200;-71
2022/05/14 01:41:39;;;;;;;15.50;14.90;;;;;;;-141.02;100.00;55844.97;5156921;27;20278;-72
2022/05/14 01:44:07;;;;;;;15.45;14.85;;;;;;;-141.02;100.00;55844.97;5155959;27;20248;-72
2022/05/14 01:46:35;;;;;;;15.73;15.13;;;;;;;-141.02;100.00;55844.97;5155947;27;20228;-71
2022/05/14 01:49:02;;;;;;;15.10;14.50;;;;;;;-141.02;100.00;55844.97;5155587;27;20231;-72
2022/05/14 01:51:29;;;;;;;15.10;14.50;;;;;;;-141.02;100.00;55844.97;5155533;27;20281;-72
2022/05/14 01:53:57;;;;;;;15.70;15.10;;;;;;;-141.02;100.00;55844.97;5155762;27;20271;-71
2022/05/14 01:56:24;;;;;;;15.85;15.15;;;;;;;-141.02;100.00;55844.97;5155408;27;20199;-72
2022/05/14 01:58:51;;;;;;;14.90;14.32;;;;;;;-141.02;100.00;55844.97;5155720;27;20188;-71
2022/05/14 02:01:21;;;;;;;15.40;14.80;;;;;;;-141.02;100.00;55844.97;5155307;27;20748;-72
2022/05/14 02:03:51;;;;;;;15.40;14.80;;;;;;;-141.02;100.00;55844.97;5155646;27;20202;-72
2022/05/14 02:06:18;;;;;;;15.30;14.70;;;;;;;-141.02;100.00;55844.97;5155507;27;20287;-72
2022/05/14 02:08:45;;;;;;;15.23;14.63;;;;;;;-141.02;100.00;55844.97;5155756;27;20195;-72
2022/05/14 02:11:13;;;;;;;15.07;14.48;;;;;;;-141.02;100.00;55844.97;5155419;27;20192;-71
2022/05/14 02:13:42;;;;;;;15.70;15.10;;;;;;;-141.02;100.00;55844.97;5155363;27;20282;-72
2022/05/14 02:16:09;;;;;;;15.25;14.65;;;;;;;-141.02;100.00;55844.97;5155062;27;20653;-71
2022/05/14 02:18:38;;;;;;;15.55;14.95;;;;;;;-141.02;100.00;55844.97;5155198;27;20227;-72
2022/05/14 02:21:06;;;;;;;15.27;14.68;;;;;;;-141.02;100.00;55844.97;5155260;27;20227;-71
2022/05/14 02:23:36;;;;;;;15.18;14.57;;;;;;;-141.02;100.00;55844.97;5155212;27;20564;-71
2022/05/14 02:26:04;;;;;;;15.02;14.43;;;;;;;-141.02;100.00;55844.97;5155228;27;20203;-72
2022/05/14 02:28:31;;;;;;;14.70;14.20;;;;;;;-141.02;100.00;55844.97;5155114;27;20270;-71
2022/05/14 02:30:58;;;;;;;15.05;14.45;;;;;;;-141.02;100.00;55844.97;5155051;27;20223;-72
2022/05/14 02:33:25;;;;;;;15.25;14.65;;;;;;;-141.02;100.00;55844.97;5154638;27;20311;-72
2022/05/14 02:35:53;;;;;;;15.45;14.85;;;;;;;-141.02;100.00;55844.97;5154584;27;20650;-71
2022/05/14 02:38:20;;;;;;;15.20;14.60;;;;;;;-141.02;100.00;55844.97;5154675;27;20191;-71
2022/05/14 02:40:47;;;;;;;14.30;13.80;;;;;;;-141.02;100.00;55844.97;5154861;27;20234;-71
2022/05/14 02:43:15;;;;;;;14.88;14.38;;;;;;;-141.02;100.00;55844.97;5154510;27;20671;-71
2022/05/14 02:45:42;;;;;;;15.15;14.55;;;;;;;-141.02;100.00;55844.97;5154034;27;20282;-72
2022/05/14 02:48:11;;;;;;;15.20;14.60;;;;;;;-141.02;100.00;55844.97;5154437;27;20192;-71
2022/05/14 02:50:38;;;;;;;15.40;14.80;;;;;;;-141.02;100.00;55844.97;5154397;27;20579;-71
2022/05/14 02:53:07;;;;;;;15.38;14.77;;;;;;;-141.02;100.00;55844.97;5154315;27;20235;-71
2022/05/14 02:55:34;;;;;;;15.68;15.07;;;;;;;-141.02;100.00;55844.97;5154583;27;20224;-71
2022/05/14 02:58:01;;;;;;;16.33;15.63;;;;;;;-141.02;100.00;55844.97;5154276;27;20191;-71
2022/05/14 03:00:29;;;;;;;15.57;14.98;;;;;;;-141.02;100.00;55844.97;5154480;27;20273;-72
2022/05/14 03:02:56;;;;;;;15.40;14.80;;;;;;;-141.02;100.00;55844.97;5154192;27;20187;-72
2022/05/14 03:05:24;;;;;;;15.20;14.60;;;;;;;-141.02;100.00;55844.97;5154143;27;20192;-72
2022/05/14 03:07:51;;;;;;;15.30;14.70;;;;;;;-141.02;100.00;55844.97;5154444;27;20271;-71
2022/05/14 03:10:20;;;;;;;15.52;14.93;;;;;;;-141.02;100.00;55844.97;5154391;27;20279;-71
2022/05/14 03:12:47;;;;;;;15.75;15.15;;;;;;;-141.02;100.00;55844.97;5154911;27;20230;-71
2022/05/14 03:15:14;;;;;;;15.50;14.90;;;;;;;-141.02;100.00;55844.97;5154240;27;20228;-72
2022/05/14 03:17:41;;;;;;;15.85;15.25;;;;;;;-141.02;100.00;55844.97;5153945;27;20284;-71
2022/05/14 03:20:11;;;;;;;15.52;14.93;;;;;;;-141.02;100.00;55844.97;5154219;27;20294;-71
2022/05/14 03:22:40;;;;;;;16.02;15.43;;;;;;;-141.02;100.00;55844.97;5153807;27;20688;-71
2022/05/14 03:25:09;;;;;;;15.23;14.63;;;;;;;-141.02;100.00;55844.97;5154477;27;20199;-71
2022/05/14 03:27:38;;;;;;;15.30;14.70;;;;;;;-141.02;100.00;55844.97;5154638;27;20282;-71
2022/05/14 03:30:06;;;;;;;15.20;14.60;;;;;;;-141.02;100.00;55844.97;5154101;27;20195;-71
2022/05/14 03:32:33;;;;;;;15.00;14.40;;;;;;;-141.02;100.00;55844.97;5153849;27;20357;-71
2022/05/14 03:35:02;;;;;;;15.60;15.00;;;;;;;-141.02;100.00;55844.97;5153919;27;20242;-71
2022/05/14 03:37:29;;;;;;;15.60;15.00;;;;;;;-141.02;100.00;55844.97;5154032;27;20196;-71
2022/05/14 03:39:56;;;;;;;15.40;14.80;;;;;;;-141.02;100.00;55844.97;5153635;27;20283;-71
2022/05/14 03:42:23;;;;;;;15.25;14.65;;;;;;;-141.02;100.00;55844.97;5153686;27;20680;-71
2022/05/14 03:44:51;;;;;;;15.48;14.88;;;;;;;-141.02;100.00;55844.97;5153656;27;20677;-71
2022/05/14 03:47:18;;;;;;;15.00;14.40;;;;;;;-141.02;100.00;55844.97;5153671;27;20231;-71
2022/05/14 03:49:46;;;;;;;15.60;15.00;;;;;;;-141.02;100.00;55844.97;5153593;27;20200;-71
2022/05/14 03:52:13;;;;;;;14.80;14.23;;;;;;;-141.02;100.00;55844.97;5153523;27;20205;-71
2022/05/14 03:54:43;;;;;;;15.20;14.60;;;;;;;-141.02;100.00;55844.97;5153784;27;20223;-71
2022/05/14 03:57:10;;;;;;;15.43;14.82;;;;;;;-141.02;100.00;55844.97;5155981;27;20274;-71
2022/05/14 03:59:37;;;;;;;16.10;15.40;;;;;;;-141.02;100.00;55844.97;5158083;27;20195;-71
2022/05/14 04:02:06;;;;;;;16.45;15.75;;;;;;;-141.02;100.00;55844.97;5157713;27;20202;-71
2022/05/14 04:04:34;;;;;;;16.58;15.88;;;;;;;-141.02;100.00;55844.97;5157912;27;20297;-71
2022/05/14 04:07:01;;;;;;;17.13;16.33;;;;;;;-141.02;100.00;55844.97;5157937;27;20252;-71
2022/05/14 04:09:28;;;;;;;17.13;16.33;;;;;;;-141.02;100.00;55844.97;5157502;27;20279;-71
2022/05/14 04:11:55;;;;;;;16.48;15.77;;;;;;;-141.02;100.00;55844.97;5157520;27;20202;-71
2022/05/14 04:14:23;;;;;;;15.93;15.23;;;;;;;-141.02;100.00;55844.97;5157690;27;20219;-71
2022/05/14 04:16:50;;;;;;;16.20;15.50;;;;;;;-141.02;100.00;55844.97;5157663;27;20286;-71
2022/05/14 04:19:19;;;;;;;16.80;16.00;;;;;;;-141.02;100.00;55844.97;5157714;27;20323;-71
2022/05/14 04:21:46;;;;;;;16.40;15.70;;;;;;;-141.02;100.00;55844.97;5157822;27;20229;-71
2022/05/14 04:24:14;;;;;;;16.30;15.60;;;;;;;-141.02;100.00;55844.97;5157587;27;20274;-71
2022/05/14 04:26:41;;;;;;;16.27;15.57;;;;;;;-141.02;100.00;55844.97;5157179;27;20195;-71
2022/05/14 04:29:08;;;;;;;16.98;16.17;;;;;;;-141.02;100.00;55844.97;5158345;27;20196;-71
2022/05/14 04:31:35;;;;;;;16.23;15.52;;;;;;;-141.02;100.00;55844.97;5157475;27;20556;-71
2022/05/14 04:34:03;;;;;;;16.40;15.70;;;;;;;-141.02;100.00;55844.97;5156868;27;20219;-71
2022/05/14 04:36:31;;;;;;;16.88;16.08;;;;;;;-141.02;100.00;55844.97;5157276;27;20219;-71
2022/05/14 04:38:58;;;;;;;16.95;16.15;;;;;;;-141.02;100.00;55844.97;5157265;27;20279;-71
2022/05/14 04:41:30;;;;;;;17.42;16.63;;;;;;;-141.02;100.00;55844.97;5156954;27;20838;-71
2022/05/14 04:43:57;;;;;;;17.70;16.90;;;;;;;-141.02;100.00;55844.97;5156962;27;20637;-71
2022/05/14 04:46:24;;;;;;;17.13;16.33;;;;;;;-141.02;100.00;55844.97;5156839;27;20291;-71
2022/05/14 04:48:51;;;;;;;17.35;16.55;;;;;;;-141.02;100.00;55844.97;5157117;27;20270;-71
2022/05/14 04:51:18;;;;;;;17.23;16.42;;;;;;;-141.02;100.00;55844.97;5156726;27;20683;-71
2022/05/14 04:53:46;;;;;;;17.98;17.17;;;;;;;-141.02;100.00;55844.97;5157027;27;20271;-71
2022/05/14 04:56:13;;;;;;;17.63;16.83;;;;;;;-141.02;100.00;55844.97;5157067;27;20266;-71
2022/05/14 04:58:40;;;;;;;17.45;16.65;;;;;;;-141.02;100.00;55844.97;5156934;27;20583;-71
2022/05/14 05:01:07;;;;;;;17.30;16.50;;;;;;;-141.02;100.00;55844.97;5156879;27;20200;-71
2022/05/14 05:03:33;;;;;;;17.58;16.77;;;;;;;-141.02;100.00;55844.97;5156808;27;20223;-71
2022/05/14 05:06:01;;;;;;;17.45;16.65;;;;;;;-141.02;100.00;55844.97;5156772;27;20700;-71
2022/05/14 05:08:30;;;;;;;17.88;17.08;;;;;;;-141.02;100.00;55844.97;5155835;27;20196;-71
2022/05/14 05:10:59;;;;;;;17.20;16.40;;;;;;;-141.02;100.00;55844.97;5156679;27;20227;-71
2022/05/14 05:13:28;;;;;;;17.05;16.25;;;;;;;-141.02;100.00;55844.97;5156562;27;20282;-71
2022/05/14 05:15:56;;;;;;;16.98;16.17;;;;;;;-141.02;100.00;55844.97;5156523;27;20311;-71
2022/05/14 05:18:23;;;;;;;17.15;16.35;;;;;;;-141.02;100.00;55844.97;5156241;27;20192;-71
2022/05/14 05:20:52;;;;;;;17.40;16.60;;;;;;;-141.02;100.00;55844.97;5156481;27;20219;-71
2022/05/14 05:23:21;;;;;;;16.98;16.17;;;;;;;-141.02;100.00;55844.97;5156462;27;20245;-71
2022/05/14 05:25:49;;;;;;;17.02;16.23;;;;;;;-141.02;100.00;55844.97;5156315;27;20279;-71
2022/05/14 05:28:18;;;;;;;17.30;16.50;;;;;;;-141.02;100.00;55844.97;5156075;27;20645;-71
2022/05/14 05:30:46;;;;;;;16.88;16.15;;;;;;;-141.02;100.00;55844.97;5156279;27;20282;-70
2022/05/14 05:33:15;;;;;;;16.40;15.70;;;;;;;-141.02;100.00;55844.97;5155990;27;20668;-71
2022/05/14 05:35:42;;;;;;;16.25;15.55;;;;;;;-141.02;100.00;55844.97;5155791;27;20266;-69
2022/05/14 05:38:10;;;;;;;16.77;16.08;;;;;;;-141.02;100.00;55844.97;5155844;27;20187;-69
2022/05/14 05:40:37;;;;;;;16.90;16.10;;;;;;;-141.02;100.00;55844.97;5156092;27;20657;-70
2022/05/14 05:43:05;;;;;;;16.60;15.82;;;;;;;-141.02;100.00;55844.97;5156057;27;20188;-70
2022/05/14 05:45:35;;;;;;;16.20;15.50;;;;;;;-141.02;100.00;55844.97;5156031;27;20192;-71
2022/05/14 05:48:02;;;;;;;16.00;15.30;;;;;;;-141.02;100.00;55844.97;5155613;27;20223;-71
2022/05/14 05:50:29;;;;;;;15.80;15.10;;;;;;;-141.02;100.00;55844.97;5155577;27;20234;-70
2022/05/14 05:52:56;;;;;;;15.93;15.23;;;;;;;-141.02;100.00;55844.97;5155892;27;20234;-70
2022/05/14 05:58:08;;;;;;;15.80;15.10;;;;;;;-141.02;100.00;55844.97;5156089;27;20183;-70
2022/05/14 06:00:38;;;;;;;15.30;14.70;;;;;;;-141.02;100.00;55844.97;5155730;27;20195;-70
2022/05/14 06:03:05;;;;;;;15.70;15.00;;;;;;;-141.02;100.00;55844.97;5155349;27;20231;-70
2022/05/14 06:05:32;;;;;;;15.70;15.00;;;;;;;-141.02;100.00;55844.97;5155269;27;20234;-70
2022/05/14 06:07:59;;;;;;;15.43;14.73;;;;;;;-141.02;100.00;55844.97;5156117;27;20192;-69
2022/05/14 06:10:26;;;;;;;15.18;14.57;;;;;;;-141.02;100.00;55844.97;5155474;27;20288;-69
2022/05/14 06:12:53;;;;;;;15.63;14.93;;;;;;;-141.02;100.00;55844.97;5155453;27;20214;-70
2022/05/14 06:15:21;;;;;;;15.48;14.77;;;;;;;-141.02;100.00;55844.97;5155028;27;20793;-70
2022/05/14 06:17:49;;;;;;;15.48;14.77;;;;;;;-141.02;100.00;55844.97;5155080;27;20656;-70
2022/05/14 06:20:18;;;;;;;15.85;15.15;;;;;;;-141.02;100.00;55844.97;5155327;27;20196;-69
2022/05/14 06:22:46;;;;;;;15.60;14.90;;;;;;;-141.02;100.00;55844.97;5155563;27;20664;-70
2022/05/14 06:25:14;;;;;;;15.68;14.98;;;;;;;-141.02;100.00;55844.97;5154928;27;20240;-70
2022/05/14 06:27:41;;;;;;;15.63;14.93;;;;;;;-141.02;100.00;55844.97;5155112;27;20196;-70
2022/05/14 06:30:09;;;;;;;15.48;14.88;;;;;;;-141.02;100.00;55844.97;5155115;27;20192;-70
2022/05/14 06:32:36;;;;;;;15.60;15.00;;;;;;;-141.02;100.00;55844.97;5154841;27;20192;-70
2022/05/14 06:35:06;;;;;;;15.80;15.10;;;;;;;-141.02;100.00;55844.97;5154931;27;20195;-71
2022/05/14 06:37:34;;;;;;;15.80;15.20;;;;;;;-141.02;100.00;55844.97;5155011;27;20288;-71
2022/05/14 06:40:01;;;;;;;15.75;15.15;;;;;;;-141.02;100.00;55844.97;5154609;27;20228;-70
2022/05/14 06:42:28;;;;;;;16.10;15.40;;;;;;;-141.02;100.00;55844.97;5154567;27;20283;-71
2022/05/14 06:44:55;;;;;;;16.38;15.68;;;;;;;-141.02;100.00;55844.97;5154851;27;20278;-70
2022/05/14 06:47:22;;;;;;;16.25;15.55;;;;;;;-141.02;100.00;55844.97;5154777;27;20287;-70
2022/05/14 06:49:49;;;;;;;16.42;15.73;;;;;;;-141.02;100.00;55844.97;5154438;27;20669;-70
2022/05/14 06:52:19;;;;;;;16.33;15.63;;;;;;;-141.02;100.00;55844.97;5154393;27;20283;-70
2022/05/14 06:54:48;;;;;;;16.55;15.85;;;;;;;-141.02;100.00;55844.97;5154714;27;20223;-71
2022/05/14 06:57:15;;;;;;;16.42;15.73;;;;;;;-141.02;100.00;55844.97;5154205;27;20768;-70
2022/05/14 06:59:42;;;;;;;16.00;15.40;;;;;;;-141.02;100.00;55844.97;5154297;27;20192;-70
2022/05/14 07:02:13;;;;;;;16.15;15.55;;;;;;;-141.02;100.00;55844.97;5154527;27;20231;-70
2022/05/14 07:07:26;;;;;;;16.73;16.02;;;;;;;-141.02;100.00;55844.97;5154533;27;20187;-70
2022/05/14 07:09:54;;;;;;;16.70;16.00;;;;;;;-141.02;100.00;55844.97;5154109;27;20287;-70
2022/05/14 07:12:21;;;;;;;16.88;16.17;;;;;;;-141.02;100.00;55844.97;5154240;27;20192;-71
2022/05/14 07:14:48;;;;;;;16.70;16.00;;;;;;;-141.02;100.00;55844.97;5154357;27;20263;-71
2022/05/14 07:17:16;;;;;;;16.60;15.90;;;;;;;-141.02;100.00;55844.97;5153920;27;20262;-70
2022/05/14 07:19:44;;;;;;;16.70;16.00;;;;;;;-141.02;100.00;55844.97;5153930;27;20198;-70
2022/05/14 07:22:14;;;;;;;16.88;16.17;;;;;;;-141.02;100.00;55844.97;5153977;27;20192;-70
2022/05/14 07:24:44;;;;;;;16.73;16.02;;;;;;;-141.02;100.00;55844.97;5154212;27;20184;-71
2022/05/14 07:27:13;;;;;;;16.90;16.20;;;;;;;-141.02;100.00;55844.97;5153909;27;20228;-69
2022/05/14 07:29:41;;;;;;;16.58;15.88;;;;;;;-141.02;100.00;55844.97;5154119;27;20242;-70
2022/05/14 07:32:10;;;;;;;16.50;15.80;;;;;;;-141.02;100.00;55844.97;5153342;27;20669;-73
2022/05/14 07:34:37;;;;;;;16.35;15.65;;;;;;;-141.02;100.00;55844.97;5153660;27;20306;-70
2022/05/14 07:37:08;;;;;;;16.75;16.05;;;;;;;-141.02;100.00;55844.97;5153992;27;20229;-70
2022/05/14 07:39:42;;;;;;;16.67;15.98;;;;;;;-141.02;100.00;55844.97;5154633;27;20191;-69
2022/05/14 07:42:16;;;;;;;16.58;15.88;;;;;;;-141.02;100.00;55844.97;5153992;27;20248;-71
2022/05/14 07:44:46;;;;;;;16.60;15.90;;;;;;;-141.02;100.00;55844.97;5154053;27;20262;-71
2022/05/14 07:47:14;;;;;;;16.70;16.00;;;;;;;-141.02;100.00;55844.97;5153992;27;20241;-72
2022/05/14 07:49:43;;;;;;;16.13;15.43;;;;;;;-141.02;100.00;55844.97;5153927;27;20227;-71
2022/05/14 07:52:10;;;;;;;16.35;15.65;;;;;;;-141.02;100.00;55844.97;5153547;27;20658;-70
2022/05/14 07:54:37;;;;;;;16.40;15.70;;;;;;;-141.02;100.00;55844.97;5153835;27;20278;-70
2022/05/14 07:57:06;;;;;;;16.27;15.57;;;;;;;-141.02;100.00;55844.97;5153754;27;20219;-70
2022/05/14 07:59:35;;;;;;;16.13;15.43;;;;;;;-141.02;100.00;55844.97;5154107;27;20191;-70
2022/05/14 08:02:02;;;;;;;16.42;15.73;;;;;;;-141.02;100.00;55844.97;5153508;27;20195;-71
2022/05/14 08:04:29;;;;;;;15.95;15.25;;;;;;;-141.02;100.00;55844.97;5153735;27;20195;-71
2022/05/14 08:06:56;;;;;;;16.13;15.43;;;;;;;-141.02;100.00;55844.97;5153797;27;20282;-73
2022/05/14 08:09:23;;;;;;;16.50;15.80;;;;;;;-141.02;100.00;55844.97;5153416;27;20283;-70
2022/05/14 08:11:50;;;;;;;16.00;15.30;;;;;;;-141.02;100.00;55844.97;5153393;27;20238;-71
2022/05/14 08:14:17;;;;;;;16.30;15.60;;;;;;;-141.02;100.00;55844.97;5153696;27;20192;-72
2022/05/14 08:16:45;;;;;;;16.10;15.40;;;;;;;-141.02;100.00;55844.97;5153573;27;20219;-70
2022/05/14 08:19:12;;;;;;;16.08;15.38;;;;;;;-141.02;100.00;55844.97;5153717;27;20231;-71
2022/05/14 08:24:34;;;;;;;16.45;15.75;;;;;;;-141.02;100.00;55844.97;5154016;27;20191;-75
2022/05/14 08:27:04;;;;;;;16.05;15.45;;;;;;;-141.02;100.00;55844.97;5153610;27;20637;-70
2022/05/14 08:29:32;;;;;;;16.15;15.45;;;;;;;-141.02;100.00;55844.97;5153614;27;20210;-70
2022/05/14 08:32:01;;;;;;;15.95;15.25;;;;;;;-141.02;100.00;55844.97;5153209;27;20658;-71
2022/05/14 08:34:28;;;;;;;16.23;15.52;;;;;;;-141.02;100.00;55844.97;5153020;27;20269;-70
2022/05/14 08:36:55;;;;;;;16.23;15.52;;;;;;;-141.02;100.00;55844.97;5153379;27;20228;-71
2022/05/14 08:39:22;;;;;;;16.17;15.48;;;;;;;-141.02;100.00;55844.97;5153160;27;20196;-71
2022/05/14 08:41:51;;;;;;;16.30;15.60;;;;;;;-141.02;100.00;55844.97;5153434;27;20234;-74
2022/05/14 08:44:22;;;;;;;16.60;16.00;;;;;;;-141.02;100.00;55844.97;5155488;27;20708;-71
2022/05/14 08:46:54;;;;;;;16.27;15.68;;;;;;;-141.02;100.00;55844.97;5156912;27;20680;-71
2022/05/14 08:49:30;;;;;;;16.27;15.68;;;;;;;-141.02;100.00;55844.97;5157092;27;20215;-69
2022/05/14 08:51:57;;;;;;;16.10;15.50;;;;;;;-141.02;100.00;55844.97;5157111;27;20187;-70
2022/05/14 08:54:26;;;;;;;17.30;16.55;;;;;;;-141.02;100.00;55844.97;5156710;27;20728;-70
2022/05/14 08:57:01;;;;;;;16.27;15.68;;;;;;;-141.02;100.00;55844.97;5156980;27;20299;-69
2022/05/14 08:59:44;;;;;;;17.05;16.35;;;;;;;-141.02;100.00;55844.97;5156639;27;20278;-71
2022/05/14 09:02:16;;;;;;;16.10;15.40;;;;;;;-141.02;100.00;55844.97;5156873;27;20196;-70
2022/05/14 09:04:45;;;;;;;16.05;15.35;;;;;;;-141.02;100.00;55844.97;5156940;27;20318;-70
2022/05/14 09:07:13;;;;;;;15.98;15.27;;;;;;;-141.02;100.00;55844.97;5156752;27;20279;-70
2022/05/14 09:09:58;;;;;;;16.20;15.50;;;;;;;-141.02;100.00;55844.97;5156741;27;20187;-70
2022/05/14 09:12:27;;;;;;;16.08;15.48;;;;;;;-141.02;100.00;55844.97;5156716;27;20215;-71
2022/05/14 09:15:00;;;;;;;16.20;15.60;;;;;;;-141.02;100.00;55844.97;5156642;27;20275;-70
2022/05/14 09:17:30;;;;;;;15.55;14.95;;;;;;;-141.02;100.00;55844.97;5157033;27;20251;-70
2022/05/14 09:20:00;;;;;;;16.30;15.70;;;;;;;-141.02;100.00;55844.97;5157691;27;20211;-70
2022/05/14 09:22:35;;;;;;;15.63;15.02;;;;;;;-141.02;100.00;55844.97;5156551;27;20184;-70
2022/05/14 09:25:22;;;;;;;15.23;14.63;;;;;;;-141.02;100.00;55844.97;5156197;27;20554;-69
2022/05/14 09:27:54;;;;;;;15.50;14.90;;;;;;;-141.02;100.00;55844.97;5156417;27;20573;-70
2022/05/14 09:30:28;;;;;;;15.88;15.27;;;;;;;-141.02;100.00;55844.97;5156049;27;20188;-70
2022/05/14 09:32:55;;;;;;;15.90;15.30;;;;;;;-141.02;100.00;55844.97;5156096;27;20612;-71
2022/05/14 09:35:25;;;;;;;16.15;15.55;;;;;;;-141.02;100.00;55844.97;5156257;27;20279;-70
2022/05/14 09:37:56;;;;;;;16.17;15.57;;;;;;;-141.02;100.00;55844.97;5156123;27;20586;-70
2022/05/14 09:40:26;;;;;;;17.10;16.40;;;;;;;-141.02;100.00;55844.97;5155909;27;20697;-71
2022/05/14 09:42:54;;;;;;;16.50;15.80;;;;;;;-141.02;100.00;55844.97;5155735;27;20199;-71
2022/05/14 09:45:27;;;;;;;16.20;15.52;;;;;;;-141.02;100.00;55844.97;5155929;27;20284;-71
2022/05/14 09:47:54;;;;;;;16.70;16.00;;;;;;;-141.02;100.00;55844.97;5155634;27;20283;-71
2022/05/14 09:50:30;;;;;;;16.30;15.60;;;;;;;-141.02;100.00;55844.97;5155633;27;20752;-71
2022/05/14 09:53:00;;;;;;;19.40;18.40;;;;;;;-141.02;100.00;55844.97;5155946;27;20222;-70
2022/05/14 09:55:58;;;;;;;17.77;16.77;;;;;;;-141.02;100.00;55844.97;5155437;27;20238;-69
2022/05/14 09:58:35;;;;;;;22.40;21.10;;;;;;;-141.02;100.00;55844.97;5156201;27;20322;-76
2022/05/14 10:01:08;;;;;;;19.60;18.40;;;;;;;-141.02;100.00;55844.97;5155510;27;20553;-75
2022/05/14 10:03:44;;;;;;;18.38;17.48;;;;;;;-141.02;100.00;55844.97;5155472;27;20180;-73
2022/05/14 10:06:24;;;;;;;21.45;20.33;;;;;;;-141.02;100.00;55844.97;5155856;27;20180;-71
2022/05/14 10:09:07;;;;;;;19.67;18.65;;;;;;;-141.02;100.00;55844.97;5155662;27;20222;-71
2022/05/14 10:11:37;;;;;;;19.70;18.60;;;;;;;-141.02;100.00;55844.97;5155553;27;20263;-71
2022/05/14 10:14:21;;;;;;;19.20;18.20;;;;;;;-141.02;100.00;55844.97;5155485;27;20191;-71
2022/05/14 10:17:03;;;;;;;21.25;19.85;;;;;;;-141.02;100.00;55844.97;5155619;27;20222;-71
2022/05/14 10:19:52;;;;;;;23.85;22.15;;;;;;;-141.02;100.00;55844.97;5155358;27;20287;-71
2022/05/14 10:26:44;;;;;;;20.65;19.35;;;;;;;-141.02;100.00;55844.97;5154994;27;20188;-71
2022/05/14 10:28:14;;;;;;;19.60;18.50;;;;;;;-141.02;100.00;55844.97;5155770;27;20323;-71
2022/05/14 10:30:53;;;;;;;19.77;18.67;;;;;;;-141.02;100.00;55844.97;5155105;27;20596;-70
2022/05/14 10:33:24;;;;;;;18.60;17.65;;;;;;;-141.02;100.00;55844.97;5154875;27;20610;-70
2022/05/14 10:35:58;;;;;;;19.10;18.10;;;;;;;-141.02;100.00;55844.97;5154997;27;20223;-69
2022/05/14 10:38:32;;;;;;;17.90;17.00;;;;;;;-141.02;100.00;55844.97;5154919;27;20264;-70
2022/05/14 10:41:04;;;;;;;17.48;16.58;;;;;;;-141.02;100.00;55844.97;5154615;27;20218;-70
2022/05/14 10:43:41;;;;;;;17.60;16.70;;;;;;;-141.02;100.00;55844.97;5154780;27;20266;-70
2022/05/14 10:46:10;;;;;;;17.33;16.42;;;;;;;-141.02;100.00;55844.97;5154516;27;20641;-70
2022/05/14 10:48:45;;;;;;;17.77;16.88;;;;;;;-141.02;100.00;55844.97;5154795;27;20192;-70
2022/05/14 10:51:20;;;;;;;17.50;16.60;;;;;;;-141.02;100.00;55844.97;5154710;27;20260;-69
2022/05/14 10:53:49;;;;;;;18.45;17.45;;;;;;;-141.02;100.00;55844.97;5154777;27;20180;-69
2022/05/14 10:56:25;;;;;;;18.02;17.02;;;;;;;-141.02;100.00;55844.97;5154285;27;20251;-69
2022/05/14 10:59:01;;;;;;;18.98;17.88;;;;;;;-141.02;100.00;55844.97;5154313;27;20271;-70
2022/05/14 11:01:33;;;;;;;19.75;18.55;;;;;;;-141.02;100.00;55844.97;5154325;27;20188;-70
2022/05/14 11:04:08;;;;;;;18.67;17.55;;;;;;;-141.02;100.00;55844.97;5154456;27;20270;-69
2022/05/14 11:06:50;;;;;;;19.35;18.15;;;;;;;-141.02;100.00;55844.97;5153777;27;20186;-70
2022/05/14 11:11:49;;;;;;;19.35;18.15;;;;;;;;;;5110573;27;20556;-70
2022/05/14 11:14:16;;;;;;;20.20;18.95;;;;;;;;;;5110477;28;20287;-71
2022/05/14 11:16:44;;;;;;;20.15;18.95;;;;;;;;;;5110203;28;20193;-71
2022/05/14 11:19:12;;;;;;;20.08;18.88;;;;;;;;;;5110166;28;20204;-71
2022/05/14 11:21:40;;;;;;;19.73;18.52;;;;;;;;;;5110093;28;20284;-71
2022/05/14 11:24:07;;;;;;;19.75;18.55;;;;;;;;;;5110056;28;20290;-70
2022/05/14 11:26:44;;;;;;;20.85;19.55;;;;;;;;;;5109998;28;20193;-71
2022/05/14 11:29:14;;;;;;;20.42;19.23;;;;;;;;;;5110023;28;20280;-71